Ansonia, OH (45303)

4:59 PM EDT en Agosto 27, 2014 (GMT -0400)
Darke County | Change Station
CLOSE
Current Station
Aeropuerto
Location: Versailles,
Altura: 1007 ft
Estaciones meteorológicas cercanas

Alt 1007 ft 40.20 °N, 84.53 °W | Updated 24 minutes ago

Mostly Cloudy
Muy nublado
84 ° F
Sensación térmica 90 ° F
N
9
Viento Variable Viento desde Norte

Hoy
Alta -- | Baja -- ° F
--% Posibilidad de precipitaciones
Ayer
Alta -- | Baja -- ° F
Precip. -- pul
7:01 AM 8:18 PM
Creciente, 5% visible
Presión 30.07 pul
Visibilidad 10.0 Millas
Nubes Nubes dispersas 3300 ft
Muy nublado 4200 ft
Índice de calor 90 ° F
Punto de rocío 72 ° F
Humedad 66%
Precipitaciones 0.00 pul
Espesor de la nieve No disponible.
UV 3 de una escala de 12
Polen 11.10 de una escala de 12
Ozono Moderada
PM2.5 Moderada
Flu Activity No disponible.
METAR KVES 272035Z AUTO 36008KT 10SM SCT033 BKN042 29/22 A3007 RMK AO2

More Conditions Fewer Conditions

Presión 30.07 pul
Visibilidad 10.0 Millas
Nubes Nubes dispersas 3300 ft
Muy nublado 4200 ft
Índice de calor 90 ° F
Punto de rocío 72 ° F
Humedad 66%
Precipitaciones 0.00 pul
Espesor de la nieve No disponible.
UV 3 de una escala de 12
Polen 11.10 de una escala de 12
Ozono Moderada
PM2.5 Moderada
Flu Activity No disponible.
METAR KVES 272035Z AUTO 36008KT 10SM SCT033 BKN042 29/22 A3007 RMK AO2

More Conditions Fewer Conditions

10-Day Weather Forecast

Almanac

Astronomía

Aug. 27, 2014 Salida Puesta
Hora real 7:01 AM EDT 8:18 PM EDT
Crepúsculo civil 6:33 AM EDT 8:46 PM EDT
Crepúsculo náutico 5:59 AM EDT 9:19 PM EDT
Crepúsculo astronómico 5:23 AM EDT 9:55 PM EDT
Luna 8:56 AM EDT 9:09 PM EDT
Horas de luz 14h 13m
Horas de luz
13h 16m
Tomorrow will be 2m 29s shorter.
Creciente, 5% of the Moon is Illuminated
Hoy
Creciente
Sep 2
Cuarto creciente
Sep 8
Luna llena
Sep 15
Cuarto menguante
Sep 24
Nueva

Extremos de hoy

Máximos del estado Bajos del estado

Community

WunderPhotos

Upload Photos

1,747,781 ¡fotos cargadas!

Nearby

Calidad del aire

  Calidad del aire Índice AQ Contaminante
Ayer Buena
PM2.5
Ayer Buena
OZONE
Real Moderada
PM2.5
Real Moderada
OZONE
Miércoles Moderada
PM2.5
Miércoles Buena
OZONE
Jueves Moderada
PM2.5
Jueves Buena
OZONE
Viernes Moderada
PM2.5
Viernes Moderada
OZONE
Sábado Moderada
PM2.5
Sábado Buena
OZONE

Grosos de nieve

Estación Profundido Altura
No tenemos constancia de nieve nueva.

Actividad de terremotos

Ciudad Distance Mag. Tiempo y dato
No hay informes recientes de la actividad sísmica.
Magnitud mínima muestra es 2,5.

Temperaturas de aguas costeras

Lugar Temperatura
Sin partes meteorológicos de las estaciones

Estaciones meteorológicas cercanas